Time;durP1;ratioP1;P1;durP2;ratioP2;P2;SDS_P1;SDS_P2;PMS_P1;PMS_P2;Temp;Humidity;BMP_temperature;BMP_pressure;BME280_temperature;BME280_humidity;BME280_pressure;Samples;Min_cycle;Max_cycle;Signal;HPM_P1;HPM_P2
2024/02/17 00:00:05;;;;;;;4.43;2.43;;;;;;;;;;5034994;28;20447;-80
2024/02/17 00:02:32;;;;;;;2.20;2.00;;;;;;;;;;5035151;28;20749;-80
2024/02/17 00:04:58;;;;;;;2.72;2.28;;;;;;;;;;5035093;28;20836;-80
2024/02/17 00:07:24;;;;;;;3.95;2.30;;;;;;;;;;5034472;28;20444;-79
2024/02/17 00:09:50;;;;;;;4.03;2.20;;;;;;;;;;5035479;28;20915;-80
2024/02/17 00:12:16;;;;;;;4.05;2.47;;;;;;;;;;5034430;28;20391;-80
2024/02/17 00:14:42;;;;;;;2.28;2.08;;;;;;;;;;5034147;28;20383;-80
2024/02/17 00:17:09;;;;;;;2.65;2.00;;;;;;;;;;5034759;28;20749;-80
2024/02/17 00:19:35;;;;;;;2.20;2.00;;;;;;;;;;5016759;28;20397;-80
2024/02/17 00:22:01;;;;;;;4.00;2.40;;;;;;;;;;5034674;28;20411;-80
2024/02/17 00:24:27;;;;;;;2.53;1.98;;;;;;;;;;5034260;28;20450;-80
2024/02/17 00:26:53;;;;;;;2.90;1.85;;;;;;;;;;5034967;28;20379;-80
2024/02/17 00:29:19;;;;;;;2.03;1.67;;;;;;;;;;5034747;28;20384;-81
2024/02/17 00:31:49;;;;;;;2.25;1.80;;;;;;;;;;5034797;28;20398;-80
2024/02/17 00:34:18;;;;;;;2.88;1.70;;;;;;;;;;5034040;28;20383;-80
2024/02/17 00:36:44;;;;;;;3.88;2.00;;;;;;;;;;5033883;28;20477;-80
2024/02/17 00:39:10;;;;;;;2.85;1.75;;;;;;;;;;5034310;28;20391;-80
2024/02/17 00:41:36;;;;;;;3.60;1.93;;;;;;;;;;5033809;28;20403;-80
2024/02/17 00:44:02;;;;;;;2.90;1.73;;;;;;;;;;5017978;28;20468;-80
2024/02/17 00:46:28;;;;;;;3.53;1.63;;;;;;;;;;5034199;28;20438;-80
2024/02/17 00:48:55;;;;;;;1.98;1.70;;;;;;;;;;5033994;28;20877;-80
2024/02/17 00:51:21;;;;;;;2.45;1.60;;;;;;;;;;5035464;28;20383;-80
2024/02/17 00:53:47;;;;;;;1.77;1.48;;;;;;;;;;5034837;28;20391;-80
2024/02/17 00:56:13;;;;;;;2.28;1.60;;;;;;;;;;5026052;28;20382;-80
2024/02/17 00:58:39;;;;;;;2.53;1.70;;;;;;;;;;5034128;28;20383;-80
2024/02/17 01:01:05;;;;;;;3.90;1.52;;;;;;;;;;5034565;28;20861;-80
2024/02/17 01:03:31;;;;;;;2.03;1.50;;;;;;;;;;5035066;28;20385;-80
2024/02/17 01:05:57;;;;;;;2.22;1.58;;;;;;;;;;5034934;28;20410;-81
2024/02/17 01:08:23;;;;;;;2.63;1.70;;;;;;;;;;5034807;28;20391;-80
2024/02/17 01:10:50;;;;;;;2.30;1.50;;;;;;;;;;5034693;28;20893;-80
2024/02/17 01:13:16;;;;;;;1.80;1.58;;;;;;;;;;5034906;28;20473;-80
2024/02/17 01:15:42;;;;;;;3.17;1.63;;;;;;;;;;5034480;28;20419;-80
2024/02/17 01:18:08;;;;;;;2.97;1.75;;;;;;;;;;5035265;28;20445;-80
2024/02/17 01:20:34;;;;;;;2.15;1.50;;;;;;;;;;5035226;28;20741;-81
2024/02/17 01:23:00;;;;;;;2.67;1.60;;;;;;;;;;5034404;28;20379;-80
2024/02/17 01:25:26;;;;;;;2.20;1.70;;;;;;;;;;5034905;28;20381;-80
2024/02/17 01:27:53;;;;;;;2.30;1.55;;;;;;;;;;5034363;28;20454;-80
2024/02/17 01:30:19;;;;;;;3.78;1.83;;;;;;;;;;5034201;28;20387;-80
2024/02/17 01:32:45;;;;;;;3.08;1.88;;;;;;;;;;5033564;28;20386;-80
2024/02/17 01:35:13;;;;;;;2.78;2.00;;;;;;;;;;5034326;28;20383;-80
2024/02/17 01:37:39;;;;;;;2.30;2.10;;;;;;;;;;5034526;28;20413;-81
2024/02/17 01:40:05;;;;;;;2.47;2.00;;;;;;;;;;5034922;28;20394;-80
2024/02/17 01:42:31;;;;;;;3.10;2.35;;;;;;;;;;5034439;28;20411;-80
2024/02/17 01:44:57;;;;;;;4.80;2.90;;;;;;;;;;5033994;28;20446;-81
2024/02/17 01:47:23;;;;;;;2.50;2.28;;;;;;;;;;5036609;28;20390;-80
2024/02/17 01:49:51;;;;;;;2.85;2.33;;;;;;;;;;5038602;28;20371;-80
2024/02/17 01:52:18;;;;;;;3.65;3.00;;;;;;;;;;5038412;28;20387;-80
2024/02/17 01:54:45;;;;;;;4.95;3.30;;;;;;;;;;5038421;28;20483;-80
2024/02/17 01:57:11;;;;;;;3.50;2.90;;;;;;;;;;5038181;28;20394;-80
2024/02/17 01:59:38;;;;;;;4.30;2.92;;;;;;;;;;5038557;28;20375;-80
2024/02/17 02:02:05;;;;;;;3.92;2.83;;;;;;;;;;5038423;28;20498;-80
2024/02/17 02:04:31;;;;;;;3.80;2.70;;;;;;;;;;5038548;28;20441;-80
2024/02/17 02:06:57;;;;;;;3.67;2.63;;;;;;;;;;5037228;28;20391;-80
2024/02/17 02:09:26;;;;;;;3.42;2.60;;;;;;;;;;5038189;28;20384;-80
2024/02/17 02:11:53;;;;;;;3.00;2.47;;;;;;;;;;5038488;28;20402;-80
2024/02/17 02:14:20;;;;;;;2.40;2.20;;;;;;;;;;5038317;28;20391;-80
2024/02/17 02:16:50;;;;;;;2.58;2.00;;;;;;;;;;5037838;28;20437;-81
2024/02/17 02:19:16;;;;;;;3.28;2.13;;;;;;;;;;5038112;28;20714;-80
2024/02/17 02:21:43;;;;;;;3.40;2.00;;;;;;;;;;5038144;28;20435;-80
2024/02/17 02:24:09;;;;;;;3.65;2.25;;;;;;;;;;5037529;28;20383;-80
2024/02/17 02:26:35;;;;;;;2.60;2.20;;;;;;;;;;5037648;28;20379;-80
2024/02/17 02:29:01;;;;;;;3.38;2.30;;;;;;;;;;5037967;28;20379;-80
2024/02/17 02:31:27;;;;;;;3.63;2.50;;;;;;;;;;5037127;28;20387;-80
2024/02/17 02:33:53;;;;;;;3.65;2.90;;;;;;;;;;5036652;28;20420;-80
2024/02/17 02:36:22;;;;;;;3.80;2.50;;;;;;;;;;5036781;28;20891;-79
2024/02/17 02:38:49;;;;;;;3.08;2.78;;;;;;;;;;5036817;28;20529;-79
2024/02/17 02:41:15;;;;;;;3.75;2.65;;;;;;;;;;5036324;28;20410;-80
2024/02/17 02:43:41;;;;;;;3.92;2.67;;;;;;;;;;5036705;28;20379;-80
2024/02/17 02:46:08;;;;;;;4.87;2.70;;;;;;;;;;5036668;28;20387;-79
2024/02/17 02:48:34;;;;;;;2.50;2.25;;;;;;;;;;5036848;28;20386;-80
2024/02/17 02:51:03;;;;;;;2.50;2.30;;;;;;;;;;5036851;28;20423;-79
2024/02/17 02:53:29;;;;;;;2.50;2.30;;;;;;;;;;5018952;28;20804;-80
2024/02/17 02:55:56;;;;;;;3.33;2.38;;;;;;;;;;5036557;28;20387;-80
2024/02/17 02:58:23;;;;;;;3.28;2.35;;;;;;;;;;5036446;28;20422;-80
2024/02/17 03:00:49;;;;;;;3.03;2.43;;;;;;;;;;5036991;28;20514;-79
2024/02/17 03:03:15;;;;;;;2.40;2.20;;;;;;;;;;5036557;28;20418;-80
2024/02/17 03:05:41;;;;;;;3.53;2.47;;;;;;;;;;5036019;28;20494;-79
2024/02/17 03:08:09;;;;;;;2.50;2.13;;;;;;;;;;5036021;28;20477;-79
2024/02/17 03:10:35;;;;;;;2.60;2.23;;;;;;;;;;5036355;28;20379;-80
2024/02/17 03:13:01;;;;;;;3.22;2.50;;;;;;;;;;5035666;28;20387;-80
2024/02/17 03:15:27;;;;;;;4.05;2.63;;;;;;;;;;5036454;28;20439;-80
2024/02/17 03:17:53;;;;;;;4.35;2.70;;;;;;;;;;5036970;28;20386;-80
2024/02/17 03:20:20;;;;;;;3.58;2.53;;;;;;;;;;5036759;28;20383;-80
2024/02/17 03:22:46;;;;;;;2.53;2.30;;;;;;;;;;5036392;28;20396;-80
2024/02/17 03:25:12;;;;;;;3.60;2.78;;;;;;;;;;5035690;28;20375;-79
2024/02/17 03:27:39;;;;;;;3.40;2.58;;;;;;;;;;5035750;28;20418;-80
2024/02/17 03:30:05;;;;;;;2.42;2.22;;;;;;;;;;5036528;28;20394;-80
2024/02/17 03:32:32;;;;;;;3.10;2.80;;;;;;;;;;5036061;28;20490;-80
2024/02/17 03:34:58;;;;;;;3.10;2.60;;;;;;;;;;5036274;28;20414;-80
2024/02/17 03:37:25;;;;;;;2.92;2.55;;;;;;;;;;5036210;28;20742;-80
2024/02/17 03:39:51;;;;;;;4.20;2.87;;;;;;;;;;5035833;28;20387;-80
2024/02/17 03:42:17;;;;;;;2.95;2.58;;;;;;;;;;5035381;28;20502;-79
2024/02/17 03:44:43;;;;;;;3.10;2.80;;;;;;;;;;5035550;28;20415;-79
2024/02/17 03:47:11;;;;;;;3.10;2.60;;;;;;;;;;5035209;28;20411;-79
2024/02/17 03:49:37;;;;;;;4.30;3.00;;;;;;;;;;5035938;28;20375;-80
2024/02/17 03:52:03;;;;;;;4.38;3.03;;;;;;;;;;5036055;28;20485;-79
2024/02/17 03:54:29;;;;;;;3.83;2.90;;;;;;;;;;5035629;28;20437;-80
2024/02/17 03:56:55;;;;;;;2.83;2.60;;;;;;;;;;5036180;28;20398;-80
2024/02/17 03:59:21;;;;;;;4.80;3.20;;;;;;;;;;5035699;28;20780;-80
2024/02/17 04:01:47;;;;;;;3.37;2.53;;;;;;;;;;5035129;28;20435;-80
2024/02/17 04:04:13;;;;;;;3.53;3.05;;;;;;;;;;5035475;28;20406;-80
2024/02/17 04:06:39;;;;;;;3.58;3.15;;;;;;;;;;5035620;28;20387;-80
2024/02/17 04:09:06;;;;;;;3.50;3.20;;;;;;;;;;5035766;28;20863;-80
2024/02/17 04:11:32;;;;;;;3.40;3.10;;;;;;;;;;5034708;28;20383;-80
2024/02/17 04:13:58;;;;;;;3.38;3.08;;;;;;;;;;5035168;28;20391;-80
2024/02/17 04:16:24;;;;;;;4.67;3.50;;;;;;;;;;5036215;28;20381;-80
2024/02/17 04:18:50;;;;;;;4.38;3.20;;;;;;;;;;5035377;28;20394;-80
2024/02/17 04:21:16;;;;;;;3.63;3.30;;;;;;;;;;5035555;28;20411;-80
2024/02/17 04:23:45;;;;;;;4.10;3.70;;;;;;;;;;5035629;28;20743;-80
2024/02/17 04:26:11;;;;;;;4.30;3.37;;;;;;;;;;5035315;28;20872;-80
2024/02/17 04:28:39;;;;;;;4.40;3.55;;;;;;;;;;5035258;28;20390;-80
2024/02/17 04:31:07;;;;;;;3.72;3.25;;;;;;;;;;5035075;28;20375;-80
2024/02/17 04:33:33;;;;;;;5.15;3.45;;;;;;;;;;5035465;28;20387;-80
2024/02/17 04:36:00;;;;;;;4.25;3.53;;;;;;;;;;5035992;28;20432;-80
2024/02/17 04:38:26;;;;;;;4.30;3.43;;;;;;;;;;5035562;28;20929;-80
2024/02/17 04:40:52;;;;;;;4.15;3.75;;;;;;;;;;5035760;28;20407;-80
2024/02/17 04:43:18;;;;;;;4.25;3.85;;;;;;;;;;5035254;28;20383;-80
2024/02/17 04:45:44;;;;;;;4.20;3.80;;;;;;;;;;5035469;28;20387;-80
2024/02/17 04:48:10;;;;;;;4.07;3.78;;;;;;;;;;5034940;28;20375;-80
2024/02/17 04:50:36;;;;;;;4.00;3.65;;;;;;;;;;5034862;28;20387;-80
2024/02/17 04:53:02;;;;;;;4.22;3.83;;;;;;;;;;5035054;28;20383;-80
2024/02/17 04:55:30;;;;;;;4.40;3.90;;;;;;;;;;5035635;28;20410;-81
2024/02/17 04:57:56;;;;;;;4.72;4.32;;;;;;;;;;5035324;28;20783;-80
2024/02/17 05:00:22;;;;;;;4.63;3.97;;;;;;;;;;5035484;28;20375;-81
2024/02/17 05:02:48;;;;;;;4.20;3.80;;;;;;;;;;5035061;28;20768;-80
2024/02/17 05:05:19;;;;;;;4.88;4.30;;;;;;;;;;5034374;28;20419;-80
2024/02/17 05:07:45;;;;;;;4.50;4.10;;;;;;;;;;5034564;28;20395;-80
2024/02/17 05:10:12;;;;;;;5.15;4.65;;;;;;;;;;5034018;28;20447;-80
2024/02/17 05:12:38;;;;;;;4.95;4.55;;;;;;;;;;5034434;28;20390;-80
2024/02/17 05:15:04;;;;;;;6.00;4.45;;;;;;;;;;5034572;28;20390;-80
2024/02/17 05:17:30;;;;;;;5.18;4.68;;;;;;;;;;5034845;28;20387;-80
2024/02/17 05:19:56;;;;;;;5.25;4.50;;;;;;;;;;5034553;28;20376;-80
2024/02/17 05:22:22;;;;;;;4.97;4.50;;;;;;;;;;5037568;28;20784;-79
2024/02/17 05:24:48;;;;;;;5.13;4.72;;;;;;;;;;5038083;28;20386;-79
2024/02/17 05:27:14;;;;;;;5.70;5.20;;;;;;;;;;5038214;28;20883;-80
2024/02/17 05:29:41;;;;;;;5.55;4.85;;;;;;;;;;5038509;28;20390;-80
2024/02/17 05:32:07;;;;;;;5.20;4.70;;;;;;;;;;5038321;28;20386;-79
2024/02/17 05:34:33;;;;;;;6.80;4.90;;;;;;;;;;5038618;28;20397;-80
2024/02/17 05:36:59;;;;;;;5.10;4.70;;;;;;;;;;5038539;28;20491;-80
2024/02/17 05:39:25;;;;;;;5.13;4.72;;;;;;;;;;5038962;28;20865;-80
2024/02/17 05:41:52;;;;;;;5.35;4.85;;;;;;;;;;5038650;28;20414;-80
2024/02/17 05:44:18;;;;;;;5.78;5.28;;;;;;;;;;5039080;28;20944;-80
2024/02/17 05:46:44;;;;;;;6.37;5.00;;;;;;;;;;5038349;28;20470;-80
2024/02/17 05:49:10;;;;;;;5.57;5.07;;;;;;;;;;5038546;28;20479;-80
2024/02/17 05:51:36;;;;;;;5.35;4.85;;;;;;;;;;5038051;28;20379;-80
2024/02/17 05:54:02;;;;;;;5.28;4.78;;;;;;;;;;5038396;28;20941;-80
2024/02/17 05:56:28;;;;;;;5.53;5.10;;;;;;;;;;5038190;28;20379;-80
2024/02/17 05:58:55;;;;;;;5.60;5.00;;;;;;;;;;5037811;28;20389;-80
2024/02/17 06:01:21;;;;;;;6.30;5.70;;;;;;;;;;5038010;28;21080;-80
2024/02/17 06:03:47;;;;;;;5.80;5.30;;;;;;;;;;5037566;28;20410;-80
2024/02/17 06:06:13;;;;;;;5.90;5.30;;;;;;;;;;5037782;28;20445;-80
2024/02/17 06:08:39;;;;;;;5.90;5.30;;;;;;;;;;5037755;28;20428;-80
2024/02/17 06:11:05;;;;;;;5.07;4.68;;;;;;;;;;5038035;28;20414;-80
2024/02/17 06:13:31;;;;;;;3.72;3.42;;;;;;;;;;5038150;28;20426;-80
2024/02/17 06:15:57;;;;;;;3.40;3.10;;;;;;;;;;5036824;28;20437;-80
2024/02/17 06:21:13;;;;;;;3.60;3.00;;;;;;;;;;5036735;28;20488;-80
2024/02/17 06:23:39;;;;;;;2.63;2.40;;;;;;;;;;5036410;28;20380;-80
2024/02/17 06:26:05;;;;;;;5.20;2.85;;;;;;;;;;5036434;28;20756;-80
2024/02/17 06:28:32;;;;;;;2.75;2.55;;;;;;;;;;5035982;28;20387;-80
2024/02/17 06:30:58;;;;;;;3.40;3.10;;;;;;;;;;5036402;28;20387;-80
2024/02/17 06:33:24;;;;;;;2.95;2.28;;;;;;;;;;5034828;28;20387;-80
2024/02/17 06:35:50;;;;;;;3.17;2.38;;;;;;;;;;5036150;28;20379;-80
2024/02/17 06:38:16;;;;;;;2.45;2.25;;;;;;;;;;5035909;28;20524;-80
2024/02/17 06:40:42;;;;;;;2.92;2.33;;;;;;;;;;5036053;28;20414;-80
2024/02/17 06:43:08;;;;;;;2.88;2.50;;;;;;;;;;5035643;28;20383;-80
2024/02/17 06:45:34;;;;;;;2.88;2.38;;;;;;;;;;5018599;28;20402;-80
2024/02/17 06:48:00;;;;;;;3.28;2.55;;;;;;;;;;5036117;28;20474;-80
2024/02/17 06:50:26;;;;;;;3.83;3.23;;;;;;;;;;5035935;28;20422;-80
2024/02/17 06:52:53;;;;;;;3.85;3.45;;;;;;;;;;5035370;28;20413;-80
2024/02/17 06:55:19;;;;;;;3.58;2.65;;;;;;;;;;5010012;28;20454;-80
2024/02/17 06:57:45;;;;;;;3.35;2.90;;;;;;;;;;5035389;28;20711;-80
2024/02/17 07:00:11;;;;;;;3.60;2.80;;;;;;;;;;5035374;28;20417;-80
2024/02/17 07:02:37;;;;;;;3.30;2.65;;;;;;;;;;5035160;28;20892;-80
2024/02/17 07:05:03;;;;;;;3.03;2.40;;;;;;;;;;5035150;28;20403;-80
2024/02/17 07:07:29;;;;;;;3.00;2.70;;;;;;;;;;5035632;28;20380;-80
2024/02/17 07:09:59;;;;;;;3.13;2.83;;;;;;;;;;5035429;28;20402;-80
2024/02/17 07:12:25;;;;;;;3.33;2.70;;;;;;;;;;5035324;28;20387;-80
2024/02/17 07:14:51;;;;;;;3.47;3.17;;;;;;;;;;5036502;28;20768;-80
2024/02/17 07:17:18;;;;;;;4.90;4.50;;;;;;;;;;5036175;28;20382;-80
2024/02/17 07:19:44;;;;;;;4.72;4.32;;;;;;;;;;5036418;28;20386;-80
2024/02/17 07:22:09;;;;;;;5.03;4.60;;;;;;;;;;5036845;28;20757;-80
2024/02/17 07:24:36;;;;;;;4.50;4.07;;;;;;;;;;5036125;28;20448;-80
2024/02/17 07:27:02;;;;;;;5.10;4.70;;;;;;;;;;5036204;28;20868;-80
2024/02/17 07:29:28;;;;;;;4.95;4.55;;;;;;;;;;5035786;28;20383;-80
2024/02/17 07:31:55;;;;;;;4.50;4.20;;;;;;;;;;5036242;28;20402;-80
2024/02/17 07:34:21;;;;;;;4.70;4.30;;;;;;;;;;5036009;28;20379;-80
2024/02/17 07:36:47;;;;;;;7.88;7.03;;;;;;;;;;5036227;28;20399;-80
2024/02/17 07:39:13;;;;;;;6.97;6.32;;;;;;;;;;5036059;28;20383;-80
2024/02/17 07:41:39;;;;;;;8.82;8.02;;;;;;;;;;5036072;28;20410;-80
2024/02/17 07:44:08;;;;;;;8.68;7.85;;;;;;;;;;5035603;28;20387;-80
2024/02/17 07:46:36;;;;;;;6.40;5.90;;;;;;;;;;5036040;28;20383;-80
2024/02/17 07:49:02;;;;;;;5.65;5.18;;;;;;;;;;5035953;28;20402;-80
2024/02/17 07:51:28;;;;;;;5.72;5.22;;;;;;;;;;5034986;28;20387;-80
2024/02/17 07:53:54;;;;;;;5.22;4.72;;;;;;;;;;5035377;28;20401;-80
2024/02/17 07:56:20;;;;;;;4.65;4.20;;;;;;;;;;5035524;28;20422;-80
2024/02/17 07:58:46;;;;;;;5.03;4.30;;;;;;;;;;5036163;28;20379;-80
2024/02/17 08:01:13;;;;;;;4.90;4.40;;;;;;;;;;5036624;28;20457;-80
2024/02/17 08:03:41;;;;;;;5.20;4.68;;;;;;;;;;5036336;28;20779;-80
2024/02/17 08:06:07;;;;;;;4.53;4.13;;;;;;;;;;5036628;28;20387;-80
2024/02/17 08:08:33;;;;;;;4.55;4.13;;;;;;;;;;5036346;28;20470;-81
2024/02/17 08:10:59;;;;;;;4.53;3.53;;;;;;;;;;5036195;28;20474;-80
2024/02/17 08:13:25;;;;;;;3.60;3.30;;;;;;;;;;5036923;28;20385;-80
2024/02/17 08:15:51;;;;;;;2.88;2.55;;;;;;;;;;5037347;28;20509;-80
2024/02/17 08:18:17;;;;;;;4.53;2.60;;;;;;;;;;5035945;28;20383;-81
2024/02/17 08:20:44;;;;;;;3.43;2.50;;;;;;;;;;5035847;28;20442;-80
2024/02/17 08:23:10;;;;;;;2.10;1.98;;;;;;;;;;5036630;28;20383;-81
2024/02/17 08:25:36;;;;;;;3.63;2.40;;;;;;;;;;5036350;28;20925;-81
2024/02/17 08:28:02;;;;;;;3.33;2.55;;;;;;;;;;5035412;28;20375;-81
2024/02/17 08:30:28;;;;;;;2.75;2.17;;;;;;;;;;5035531;28;20414;-81
2024/02/17 08:32:56;;;;;;;3.40;2.55;;;;;;;;;;5035036;28;20383;-81
2024/02/17 08:35:22;;;;;;;2.40;1.95;;;;;;;;;;5035100;28;20927;-81
2024/02/17 08:37:48;;;;;;;2.33;2.13;;;;;;;;;;5034774;28;20384;-80
2024/02/17 08:40:14;;;;;;;3.20;2.90;;;;;;;;;;5035003;28;20387;-81
2024/02/17 08:42:41;;;;;;;2.65;2.10;;;;;;;;;;5035090;28;20839;-81
2024/02/17 08:45:07;;;;;;;2.22;2.03;;;;;;;;;;5034580;28;20907;-80
2024/02/17 08:47:33;;;;;;;2.40;2.20;;;;;;;;;;5035002;28;20391;-81
2024/02/17 08:49:59;;;;;;;3.10;2.83;;;;;;;;;;5035195;28;20394;-81
2024/02/17 08:52:25;;;;;;;2.00;1.80;;;;;;;;;;5035160;28;20390;-81
2024/02/17 08:54:51;;;;;;;2.67;2.10;;;;;;;;;;5035182;28;20387;-81
2024/02/17 08:57:17;;;;;;;2.28;2.05;;;;;;;;;;5034156;28;20819;-81
2024/02/17 08:59:43;;;;;;;1.88;1.70;;;;;;;;;;5034806;28;20417;-81
2024/02/17 09:02:16;;;;;;;2.70;2.00;;;;;;;;;;5034863;28;20415;-81
2024/02/17 09:04:42;;;;;;;1.98;1.63;;;;;;;;;;5034806;28;20896;-80
2024/02/17 09:07:08;;;;;;;2.05;1.75;;;;;;;;;;5034420;28;20383;-81
2024/02/17 09:09:34;;;;;;;2.55;2.33;;;;;;;;;;5033934;28;20860;-81
2024/02/17 09:12:00;;;;;;;2.22;1.98;;;;;;;;;;5034108;28;20398;-81
2024/02/17 09:14:32;;;;;;;2.58;1.77;;;;;;;;;;5035084;28;20379;-81
2024/02/17 09:16:58;;;;;;;2.85;2.15;;;;;;;;;;5034903;28;20943;-81
2024/02/17 09:19:24;;;;;;;1.93;1.77;;;;;;;;;;5034935;28;20414;-81
2024/02/17 09:21:51;;;;;;;1.77;1.50;;;;;;;;;;5034423;28;20438;-81
2024/02/17 09:24:20;;;;;;;2.13;1.70;;;;;;;;;;5034623;28;20783;-81
2024/02/17 09:26:46;;;;;;;3.05;1.90;;;;;;;;;;5034623;28;20375;-81
2024/02/17 09:29:12;;;;;;;1.95;1.75;;;;;;;;;;5034275;28;20409;-81
2024/02/17 09:31:38;;;;;;;2.13;1.92;;;;;;;;;;5034025;28;20386;-81
2024/02/17 09:34:05;;;;;;;2.22;1.83;;;;;;;;;;5034955;28;20376;-81
2024/02/17 09:36:31;;;;;;;1.90;1.58;;;;;;;;;;5034372;28;20387;-81
2024/02/17 09:38:57;;;;;;;2.13;1.92;;;;;;;;;;5034564;28;20383;-81
2024/02/17 09:41:23;;;;;;;2.83;1.90;;;;;;;;;;5034165;28;20904;-81
2024/02/17 09:43:52;;;;;;;1.80;1.70;;;;;;;;;;5034607;28;20375;-82
2024/02/17 09:46:18;;;;;;;2.13;1.92;;;;;;;;;;5034504;28;20409;-82
2024/02/17 09:48:44;;;;;;;2.05;1.88;;;;;;;;;;5034211;28;20391;-81
2024/02/17 09:51:10;;;;;;;2.70;1.95;;;;;;;;;;5034967;28;20379;-82
2024/02/17 09:53:38;;;;;;;2.20;2.00;;;;;;;;;;5034293;28;20908;-82
2024/02/17 09:56:05;;;;;;;17.83;12.38;;;;;;;;;;5034695;28;20391;-81
2024/02/17 09:58:31;;;;;;;5.30;4.80;;;;;;;;;;5034649;28;20957;-82
2024/02/17 10:00:57;;;;;;;2.42;2.03;;;;;;;;;;5033950;28;20407;-82
2024/02/17 10:03:25;;;;;;;2.97;2.50;;;;;;;;;;5034323;28;20807;-82
2024/02/17 10:05:51;;;;;;;2.42;2.22;;;;;;;;;;5034826;28;20409;-82
2024/02/17 10:08:17;;;;;;;2.50;2.30;;;;;;;;;;5037465;28;20773;-82
2024/02/17 10:10:43;;;;;;;2.90;2.70;;;;;;;;;;5038483;28;21079;-81
2024/02/17 10:13:20;;;;;;;6.93;6.32;;;;;;;;;;5037483;28;20394;-81
2024/02/17 10:15:46;;;;;;;6.18;5.68;;;;;;;;;;5037762;28;20468;-82
2024/02/17 10:18:14;;;;;;;8.57;7.70;;;;;;;;;;5038292;28;20914;-81
2024/02/17 10:20:41;;;;;;;3.22;2.92;;;;;;;;;;5037397;28;20371;-82
2024/02/17 10:23:07;;;;;;;2.33;2.13;;;;;;;;;;5038002;28;20383;-82
2024/02/17 10:25:40;;;;;;;2.13;2.00;;;;;;;;;;5037577;28;20462;-81
2024/02/17 10:28:07;;;;;;;2.70;2.50;;;;;;;;;;5037007;28;20417;-82
2024/02/17 10:30:36;;;;;;;3.13;2.85;;;;;;;;;;5037340;28;20387;-81
2024/02/17 10:33:05;;;;;;;6.20;5.80;;;;;;;;;;5037493;28;20387;-81
2024/02/17 10:35:31;;;;;;;2.90;2.70;;;;;;;;;;5038369;28;20473;-82
2024/02/17 10:37:58;;;;;;;8.13;7.50;;;;;;;;;;5037411;28;20390;-82
2024/02/17 10:40:25;;;;;;;3.67;3.38;;;;;;;;;;5035229;28;20463;-82
2024/02/17 10:42:51;;;;;;;3.00;2.80;;;;;;;;;;5040345;28;20407;-81
2024/02/17 10:45:17;;;;;;;4.25;3.65;;;;;;;;;;5037112;28;20433;-81
2024/02/17 10:47:46;;;;;;;5.30;4.90;;;;;;;;;;5037181;28;20943;-82
2024/02/17 10:50:17;;;;;;;3.78;3.47;;;;;;;;;;5036746;28;20381;-82
2024/02/17 10:52:49;;;;;;;3.80;3.50;;;;;;;;;;5037017;28;20393;-81
2024/02/17 10:55:15;;;;;;;4.17;3.77;;;;;;;;;;5037188;28;20482;-82
2024/02/17 10:57:53;;;;;;;3.22;3.03;;;;;;;;;;5036581;28;20383;-82
2024/02/17 11:00:20;;;;;;;3.88;3.38;;;;;;;;;;5037042;28;20422;-82
2024/02/17 11:02:48;;;;;;;4.97;3.88;;;;;;;;;;5036729;28;20945;-82
2024/02/17 11:05:15;;;;;;;4.00;3.60;;;;;;;;;;5036377;28;20407;-81
2024/02/17 11:07:42;;;;;;;31.48;6.95;;;;;;;;;;5036648;28;20711;-81
2024/02/17 11:10:08;;;;;;;4.00;3.70;;;;;;;;;;5037106;28;20460;-82
2024/02/17 11:12:35;;;;;;;5.40;4.90;;;;;;;;;;5036267;28;20406;-81
2024/02/17 11:15:09;;;;;;;5.57;5.18;;;;;;;;;;5036775;28;20390;-81
2024/02/17 11:17:42;;;;;;;5.10;4.68;;;;;;;;;;5036541;28;20728;-81
2024/02/17 11:20:12;;;;;;;4.80;4.40;;;;;;;;;;5036147;28;20379;-81
2024/02/17 11:22:38;;;;;;;5.95;4.93;;;;;;;;;;5035726;28;20414;-81
2024/02/17 11:25:05;;;;;;;5.13;4.72;;;;;;;;;;5036858;28;20386;-81
2024/02/17 11:27:31;;;;;;;5.85;5.35;;;;;;;;;;5036722;28;20379;-81
2024/02/17 11:30:01;;;;;;;5.63;5.07;;;;;;;;;;5035883;28;20391;-81
2024/02/17 11:32:30;;;;;;;5.88;5.20;;;;;;;;;;5036431;28;20390;-81
2024/02/17 11:34:56;;;;;;;6.10;5.50;;;;;;;;;;5036005;28;20387;-81
2024/02/17 11:37:23;;;;;;;5.85;5.35;;;;;;;;;;5036463;28;20387;-81
2024/02/17 11:39:50;;;;;;;6.30;5.80;;;;;;;;;;5036485;28;20409;-81
2024/02/17 11:42:17;;;;;;;6.97;6.28;;;;;;;;;;5036387;28;20545;-81
2024/02/17 11:44:45;;;;;;;6.82;6.32;;;;;;;;;;5036310;28;20454;-81
2024/02/17 11:47:12;;;;;;;6.40;5.80;;;;;;;;;;5036249;28;20387;-81
2024/02/17 11:49:40;;;;;;;6.93;6.32;;;;;;;;;;5036318;28;20926;-81
2024/02/17 11:52:07;;;;;;;20.90;8.05;;;;;;;;;;5036416;28;20402;-81
2024/02/17 11:54:34;;;;;;;8.15;7.35;;;;;;;;;;5036382;28;20383;-81
2024/02/17 11:57:00;;;;;;;7.97;7.27;;;;;;;;;;5036935;28;20437;-81
2024/02/17 11:59:28;;;;;;;7.68;7.05;;;;;;;;;;5036461;28;20868;-81
2024/02/17 12:01:54;;;;;;;10.13;7.90;;;;;;;;;;5036061;28;20881;-81
2024/02/17 12:04:24;;;;;;;8.23;7.45;;;;;;;;;;5037194;28;20429;-81
2024/02/17 12:06:51;;;;;;;7.35;6.68;;;;;;;;;;5037119;28;20376;-79
2024/02/17 12:09:17;;;;;;;8.33;7.53;;;;;;;;;;5034383;28;20497;-80
2024/02/17 12:11:44;;;;;;;9.35;8.50;;;;;;;;;;5035551;28;20442;-78
2024/02/17 12:14:11;;;;;;;8.50;7.70;;;;;;;;;;5034644;28;20457;-79
2024/02/17 12:16:37;;;;;;;7.95;7.25;;;;;;;;;;5034939;28;20383;-80
2024/02/17 12:19:10;;;;;;;8.30;7.50;;;;;;;;;;5034457;28;20387;-80
2024/02/17 12:21:40;;;;;;;8.68;7.78;;;;;;;;;;5035036;28;20411;-80
2024/02/17 12:24:06;;;;;;;7.68;6.97;;;;;;;;;;5034417;28;20397;-80
2024/02/17 12:26:33;;;;;;;8.18;7.38;;;;;;;;;;5034984;28;20375;-79
2024/02/17 12:29:03;;;;;;;8.43;7.63;;;;;;;;;;5035550;28;20386;-79
2024/02/17 12:31:30;;;;;;;8.77;8.07;;;;;;;;;;5034388;28;20383;-80
2024/02/17 12:33:56;;;;;;;8.85;8.07;;;;;;;;;;5034459;28;20409;-81
2024/02/17 12:36:23;;;;;;;9.18;8.38;;;;;;;;;;5034489;28;20383;-80
2024/02/17 12:38:58;;;;;;;9.87;9.03;;;;;;;;;;5034655;28;20436;-80
2024/02/17 12:41:24;;;;;;;8.30;7.70;;;;;;;;;;5035240;28;20409;-80
2024/02/17 12:43:57;;;;;;;8.55;7.85;;;;;;;;;;5034541;28;20383;-81
2024/02/17 12:46:26;;;;;;;9.60;8.70;;;;;;;;;;5034707;28;20375;-80
2024/02/17 12:48:52;;;;;;;9.35;8.55;;;;;;;;;;5034160;28;20432;-81
2024/02/17 12:51:23;;;;;;;9.18;8.38;;;;;;;;;;5033436;28;20864;-79
2024/02/17 12:53:49;;;;;;;10.85;9.05;;;;;;;;;;5034055;28;20455;-80
2024/02/17 12:56:16;;;;;;;10.90;9.90;;;;;;;;;;5034857;28;20390;-80
2024/02/17 12:58:42;;;;;;;8.27;7.57;;;;;;;;;;5033600;28;20418;-80
2024/02/17 13:01:08;;;;;;;8.57;7.78;;;;;;;;;;5034693;28;20417;-80
2024/02/17 13:03:34;;;;;;;8.40;7.68;;;;;;;;;;5034453;28;20383;-80
2024/02/17 13:06:02;;;;;;;9.10;8.30;;;;;;;;;;5034478;28;20508;-80
2024/02/17 13:08:29;;;;;;;8.60;7.80;;;;;;;;;;5034146;28;20390;-80
2024/02/17 13:10:55;;;;;;;8.67;7.87;;;;;;;;;;5017116;28;20437;-80
2024/02/17 13:13:21;;;;;;;8.50;7.80;;;;;;;;;;5034423;28;20379;-81
2024/02/17 13:15:47;;;;;;;8.20;7.53;;;;;;;;;;5034241;28;20450;-81
2024/02/17 13:18:13;;;;;;;8.98;8.20;;;;;;;;;;5033966;28;20473;-80
2024/02/17 13:20:40;;;;;;;7.65;7.05;;;;;;;;;;5034016;28;20470;-81
2024/02/17 13:23:06;;;;;;;7.72;7.03;;;;;;;;;;5034176;28;20411;-80
2024/02/17 13:25:33;;;;;;;7.85;7.15;;;;;;;;;;5033910;28;20367;-80
2024/02/17 13:27:59;;;;;;;8.80;8.00;;;;;;;;;;5034449;28;20458;-81
2024/02/17 13:30:25;;;;;;;9.05;8.35;;;;;;;;;;5034667;28;20403;-79
2024/02/17 13:32:51;;;;;;;9.20;8.40;;;;;;;;;;5035083;28;20852;-80
2024/02/17 13:35:19;;;;;;;9.38;7.82;;;;;;;;;;5033629;28;20383;-80
2024/02/17 13:37:45;;;;;;;8.82;8.05;;;;;;;;;;5033277;28;20445;-79
2024/02/17 13:40:11;;;;;;;8.90;8.10;;;;;;;;;;5033829;28;20387;-80
2024/02/17 13:42:38;;;;;;;8.45;7.65;;;;;;;;;;5036004;28;20399;-80
2024/02/17 13:45:04;;;;;;;8.57;7.78;;;;;;;;;;5038566;28;20458;-80
2024/02/17 13:47:36;;;;;;;9.48;8.60;;;;;;;;;;5038819;28;20393;-82
2024/02/17 13:50:09;;;;;;;10.25;9.35;;;;;;;;;;5038276;28;20394;-80
2024/02/17 13:52:35;;;;;;;9.73;8.93;;;;;;;;;;5037958;28;20438;-82
2024/02/17 13:55:01;;;;;;;10.48;9.48;;;;;;;;;;5037817;28;20391;-82
2024/02/17 13:57:28;;;;;;;11.23;10.15;;;;;;;;;;5037089;28;20387;-81
2024/02/17 13:59:54;;;;;;;11.43;10.43;;;;;;;;;;5038030;28;20395;-81
2024/02/17 14:02:21;;;;;;;10.40;9.50;;;;;;;;;;5038569;28;20417;-82
2024/02/17 14:04:47;;;;;;;13.15;11.95;;;;;;;;;;5039521;28;20484;-81
2024/02/17 14:07:13;;;;;;;12.87;11.77;;;;;;;;;;5037474;28;20800;-82
2024/02/17 14:09:41;;;;;;;11.50;10.50;;;;;;;;;;5037339;28;20379;-80
2024/02/17 14:12:07;;;;;;;17.23;15.50;;;;;;;;;;5036467;28;20388;-81
2024/02/17 14:14:33;;;;;;;25.45;12.43;;;;;;;;;;5036410;28;20908;-81
2024/02/17 14:16:59;;;;;;;17.40;11.02;;;;;;;;;;5037190;28;20395;-81
2024/02/17 14:19:25;;;;;;;92.60;18.70;;;;;;;;;;5036143;28;20813;-81
2024/02/17 14:21:51;;;;;;;11.38;9.57;;;;;;;;;;5036227;28;20407;-80
2024/02/17 14:24:17;;;;;;;10.50;9.60;;;;;;;;;;5037179;28;20387;-79
2024/02/17 14:26:43;;;;;;;14.48;10.23;;;;;;;;;;5036738;28;20383;-79
2024/02/17 14:29:10;;;;;;;13.05;10.25;;;;;;;;;;5037485;28;20379;-79
2024/02/17 14:31:40;;;;;;;13.27;10.13;;;;;;;;;;5036971;28;20383;-79
2024/02/17 14:34:06;;;;;;;11.37;10.17;;;;;;;;;;5036504;28;20479;-79
2024/02/17 14:36:32;;;;;;;10.57;9.57;;;;;;;;;;5036844;28;20437;-79
2024/02/17 14:38:58;;;;;;;10.57;9.60;;;;;;;;;;5035808;28;20398;-79